Sara Borchard — V2BY8 — position and weather

sailwx.info

Track history (hours):
 
Tides and Currents Weather Stations Pressure Air Temp Water Temp Dewpoint Dewpoint Depression Visibility Wind Speed Wind Dir Waves Ship Positions

Sara Borchard

Last reported at 2014-Jul-31 04:34 UTC. Time now 2014-Jul-31 05:33 UTC.
Position N 43°29' E 007°43'.

Length 134 m; draft 8 m.

Type: Ship (hazmat cat A). MMSI: 304962000.

Date/timePositionNaut miles runAvg speedWind from/ knotsBaromVisibWave heightAir tempDewpointWater temp
2014-Jul-31 04:34N 43°29' E 007°43'1616.1
2014-Jul-31 03:33N 43°20' E 007°25'1616.0
2014-Jul-31 02:34N 43°10' E 007°07'1615.9
2014-Jul-31 01:34N 43°02' E 006°49'1515.0
2014-Jul-31 00:33N 42°56' E 006°29'1515.3
2014-Jul-30 23:33N 42°57' E 006°09'1515.5
2014-Jul-30 22:33N 42°56' E 005°47'1615.8
2014-Jul-30 21:33N 43°03' E 005°27'1515.4
2014-Jul-30 20:33N 43°10' E 005°09'1312.6
2014-Jul-30 19:33N 43°21' E 005°19'1 0.6
2014-Jul-30 17:25N 43°21' E 005°20'0 0.0
2014-Jul-30 15:24N 43°21' E 005°20'0 0.0
2014-Jul-30 14:30N 43°21' E 005°20'0 0.0
2014-Jul-30 13:29N 43°21' E 005°20'0 0.0
2014-Jul-30 11:22N 43°21' E 005°20'0 0.1
2014-Jul-30 10:33N 43°21' E 005°20'8 8.1
2014-Jul-30 09:33N 43°16' E 005°11'1110.7
2014-Jul-30 08:32N 43°05' E 005°07'1313.2
2014-Jul-30 07:31N 42°55' E 004°55'1212.7
2014-Jul-30 06:33N 42°46' E 004°44'1514.8
2014-Jul-30 05:33N 42°35' E 004°30'1413.8
2014-Jul-30 04:33N 42°25' E 004°18'1414.2
2014-Jul-30 03:33N 42°16' E 004°04'1414.0
2014-Jul-30 02:34N 42°07' E 003°49'1514.7
2014-Jul-30 01:33N 41°58' E 003°33'1514.6
2014-Jul-30 00:33N 41°49' E 003°17'1514.8
2014-Jul-29 23:32N 41°40' E 003°01'1515.0
2014-Jul-29 22:33N 41°32' E 002°45'1615.0
2014-Jul-29 21:30N 41°22' E 002°29'1413.4
2014-Jul-29 20:26N 41°17' E 002°11'1 0.1
2014-Jul-29 12:05N 41°17' E 002°11'1118.6
2014-Jul-29 11:29N 41°11' E 001°59'115 8.3
2014-Jul-28 21:31N 39°57' E 000°02'9 8.7
2014-Jul-28 20:32N 39°55' E 000°12'1817.8
2014-Jul-28 19:31N 39°46' E 000°33'3717.8
2014-Jul-28 17:27N 39°32' E 001°17'1617.7
2014-Jul-28 16:33N 39°27' E 001°37'1817.6
2014-Jul-28 15:33N 39°21' E 001°58'1616.1
2014-Jul-28 14:33N 39°14' E 002°17'1817.8
2014-Jul-28 13:33N 39°07' E 002°38'1817.6
2014-Jul-28 12:33N 39°00' E 002°59'1717.0
2014-Jul-28 11:33N 38°56' E 003°20'1817.5
2014-Jul-28 10:33N 38°52' E 003°42'1717.4
2014-Jul-28 09:33N 38°48' E 004°04'2317.4
2014-Jul-28 08:14N 38°43' E 004°32'3 1.5
2014-Jul-28 06:20N 38°42' E 004°36'1 0.5
2014-Jul-28 05:08N 38°42' E 004°37'2312.8
2014-Jul-28 03:18N 38°36' E 005°06'18917.5
2014-Jul-27 16:29N 37°51' E 008°59'1516.4
2014-Jul-27 15:33N 37°47' E 009°18'1616.3
2014-Jul-27 14:33N 37°43' E 009°38'5016.3
2014-Jul-27 11:31N 37°36' E 010°40'6817.2
2014-Jul-27 07:33N 37°08' E 011°58'3617.2
2014-Jul-27 05:28N 36°54' E 012°40'1618.0
2014-Jul-27 04:33N 36°49' E 012°59'1817.9
2014-Jul-27 03:33N 36°43' E 013°21'1818.0
2014-Jul-27 02:32N 36°38' E 013°43'1817.9
2014-Jul-27 01:33N 36°33' E 014°03'2617.6
2014-Jul-27 00:03N 36°23' E 014°34'817.2
2014-Jul-26 23:33N 36°20' E 014°44'2417.1
2014-Jul-26 22:09N 36°13' E 015°13'1017.5
2014-Jul-26 21:33N 36°10' E 015°25'1817.4
2014-Jul-26 20:31N 36°04' E 015°46'25417.7
2014-Jul-26 06:08N 34°27' E 020°34'1717.0
2014-Jul-26 05:08N 34°20' E 020°52'49211.0
2014-Jul-24 08:16N 31°11' E 029°52'0 0.2
2014-Jul-24 07:33N 31°11' E 029°52'4 3.6
2014-Jul-24 06:33N 31°11' E 029°48'1 1.2
2014-Jul-24 05:33N 31°12' E 029°48'0 0.4
2014-Jul-24 04:24N 31°12' E 029°47'10 7.8
2014-Jul-24 03:06N 31°20' E 029°55'712.9
2014-Jul-24 02:33N 31°25' E 030°00'1312.9
2014-Jul-24 01:33N 31°34' E 030°11'1313.2
2014-Jul-24 00:33N 31°44' E 030°21'1514.0
2014-Jul-23 23:27N 31°57' E 030°30'1213.6
2014-Jul-23 22:32N 31°59' E 030°44'1313.5
2014-Jul-23 21:32N 31°59' E 031°00'1313.5
2014-Jul-23 20:34N 32°01' E 031°16'1313.2
2014-Jul-23 19:33N 32°02' E 031°31'1313.3
2014-Jul-23 18:33N 32°01' E 031°47'1413.5
2014-Jul-23 17:33N 32°01' E 032°03'1413.7
2014-Jul-23 16:33N 32°01' E 032°19'1313.2
2014-Jul-23 15:33N 32°00' E 032°35'1313.2
2014-Jul-23 14:33N 31°59' E 032°50'1313.2
2014-Jul-23 13:33N 31°58' E 033°06'1313.4
2014-Jul-23 12:34N 31°57' E 033°21'1413.5
2014-Jul-23 11:31N 31°56' E 033°38'1313.5
2014-Jul-23 10:32N 31°55' E 033°53'1613.4
2014-Jul-23 09:19N 31°54' E 034°13'25 1.2
2014-Jul-22 11:31N 32°12' E 034°34'1414.8
2014-Jul-22 10:33N 32°26' E 034°39'1514.6
2014-Jul-22 09:33N 32°40' E 034°44'17 1.4
2014-Jul-21 21:23N 32°55' E 034°35'5710.8
2014-Jul-21 16:07N 33°31' E 033°43'1012.4
2014-Jul-21 15:21N 33°40' E 033°38'3512.3
2014-Jul-21 12:31N 34°11' E 033°20'1212.2
2014-Jul-21 11:33N 34°22' E 033°13'1212.1
2014-Jul-21 10:33N 34°33' E 033°07'8 7.7
2014-Jul-21 09:31N 34°39' E 033°01'0 0.0
2014-Jul-21 08:28N 34°39' E 033°01'0 0.0
2014-Jul-21 07:31N 34°39' E 033°01'0 0.0
2014-Jul-21 06:33N 34°39' E 033°01'0 0.0
2014-Jul-21 05:33N 34°39' E 033°01'  
Track history (hours):
 
Tides and Currents Weather Stations Pressure Air Temp Water Temp Dewpoint Dewpoint Depression Visibility Wind Speed Wind Dir Waves Ship Positions

Sara Borchard

Last reported at 2014-Jul-31 04:34 UTC. Time now 2014-Jul-31 05:33 UTC.
Position N 43°29' E 007°43'.

Length 134 m; draft 8 m.

Type: Ship (hazmat cat A). MMSI: 304962000.

Date/timePositionNaut miles runAvg speedWind from/ knotsBaromVisibWave heightAir tempDewpointWater temp
2014-Jul-31 04:34N 43°29' E 007°43'1616.1
2014-Jul-31 03:33N 43°20' E 007°25'1616.0
2014-Jul-31 02:34N 43°10' E 007°07'1615.9
2014-Jul-31 01:34N 43°02' E 006°49'1515.0
2014-Jul-31 00:33N 42°56' E 006°29'1515.3
2014-Jul-30 23:33N 42°57' E 006°09'1515.5
2014-Jul-30 22:33N 42°56' E 005°47'1615.8
2014-Jul-30 21:33N 43°03' E 005°27'1515.4
2014-Jul-30 20:33N 43°10' E 005°09'1312.6
2014-Jul-30 19:33N 43°21' E 005°19'1 0.6
2014-Jul-30 17:25N 43°21' E 005°20'0 0.0
2014-Jul-30 15:24N 43°21' E 005°20'0 0.0
2014-Jul-30 14:30N 43°21' E 005°20'0 0.0
2014-Jul-30 13:29N 43°21' E 005°20'0 0.0
2014-Jul-30 11:22N 43°21' E 005°20'0 0.1
2014-Jul-30 10:33N 43°21' E 005°20'8 8.1
2014-Jul-30 09:33N 43°16' E 005°11'1110.7
2014-Jul-30 08:32N 43°05' E 005°07'1313.2
2014-Jul-30 07:31N 42°55' E 004°55'1212.7
2014-Jul-30 06:33N 42°46' E 004°44'1514.8
2014-Jul-30 05:33N 42°35' E 004°30'1413.8
2014-Jul-30 04:33N 42°25' E 004°18'1414.2
2014-Jul-30 03:33N 42°16' E 004°04'1414.0
2014-Jul-30 02:34N 42°07' E 003°49'1514.7
2014-Jul-30 01:33N 41°58' E 003°33'1514.6
2014-Jul-30 00:33N 41°49' E 003°17'1514.8
2014-Jul-29 23:32N 41°40' E 003°01'1515.0
2014-Jul-29 22:33N 41°32' E 002°45'1615.0
2014-Jul-29 21:30N 41°22' E 002°29'1413.4
2014-Jul-29 20:26N 41°17' E 002°11'1 0.1
2014-Jul-29 12:05N 41°17' E 002°11'1118.6
2014-Jul-29 11:29N 41°11' E 001°59'115 8.3
2014-Jul-28 21:31N 39°57' E 000°02'9 8.7
2014-Jul-28 20:32N 39°55' E 000°12'1817.8
2014-Jul-28 19:31N 39°46' E 000°33'3717.8
2014-Jul-28 17:27N 39°32' E 001°17'1617.7
2014-Jul-28 16:33N 39°27' E 001°37'1817.6
2014-Jul-28 15:33N 39°21' E 001°58'1616.1
2014-Jul-28 14:33N 39°14' E 002°17'1817.8
2014-Jul-28 13:33N 39°07' E 002°38'1817.6
2014-Jul-28 12:33N 39°00' E 002°59'1717.0
2014-Jul-28 11:33N 38°56' E 003°20'1817.5
2014-Jul-28 10:33N 38°52' E 003°42'1717.4
2014-Jul-28 09:33N 38°48' E 004°04'2317.4
2014-Jul-28 08:14N 38°43' E 004°32'3 1.5
2014-Jul-28 06:20N 38°42' E 004°36'1 0.5
2014-Jul-28 05:08N 38°42' E 004°37'2312.8
2014-Jul-28 03:18N 38°36' E 005°06'18917.5
2014-Jul-27 16:29N 37°51' E 008°59'1516.4
2014-Jul-27 15:33N 37°47' E 009°18'1616.3
2014-Jul-27 14:33N 37°43' E 009°38'5016.3
2014-Jul-27 11:31N 37°36' E 010°40'6817.2
2014-Jul-27 07:33N 37°08' E 011°58'3617.2
2014-Jul-27 05:28N 36°54' E 012°40'1618.0
2014-Jul-27 04:33N 36°49' E 012°59'1817.9
2014-Jul-27 03:33N 36°43' E 013°21'1818.0
2014-Jul-27 02:32N 36°38' E 013°43'1817.9
2014-Jul-27 01:33N 36°33' E 014°03'2617.6
2014-Jul-27 00:03N 36°23' E 014°34'817.2
2014-Jul-26 23:33N 36°20' E 014°44'2417.1
2014-Jul-26 22:09N 36°13' E 015°13'1017.5
2014-Jul-26 21:33N 36°10' E 015°25'1817.4
2014-Jul-26 20:31N 36°04' E 015°46'25417.7
2014-Jul-26 06:08N 34°27' E 020°34'1717.0
2014-Jul-26 05:08N 34°20' E 020°52'49211.0
2014-Jul-24 08:16N 31°11' E 029°52'0 0.2
2014-Jul-24 07:33N 31°11' E 029°52'4 3.6
2014-Jul-24 06:33N 31°11' E 029°48'1 1.2
2014-Jul-24 05:33N 31°12' E 029°48'0 0.4
2014-Jul-24 04:24N 31°12' E 029°47'10 7.8
2014-Jul-24 03:06N 31°20' E 029°55'712.9
2014-Jul-24 02:33N 31°25' E 030°00'1312.9
2014-Jul-24 01:33N 31°34' E 030°11'1313.2
2014-Jul-24 00:33N 31°44' E 030°21'1514.0
2014-Jul-23 23:27N 31°57' E 030°30'1213.6
2014-Jul-23 22:32N 31°59' E 030°44'1313.5
2014-Jul-23 21:32N 31°59' E 031°00'1313.5
2014-Jul-23 20:34N 32°01' E 031°16'1313.2
2014-Jul-23 19:33N 32°02' E 031°31'1313.3
2014-Jul-23 18:33N 32°01' E 031°47'1413.5
2014-Jul-23 17:33N 32°01' E 032°03'1413.7
2014-Jul-23 16:33N 32°01' E 032°19'1313.2
2014-Jul-23 15:33N 32°00' E 032°35'1313.2
2014-Jul-23 14:33N 31°59' E 032°50'1313.2
2014-Jul-23 13:33N 31°58' E 033°06'1313.4
2014-Jul-23 12:34N 31°57' E 033°21'1413.5
2014-Jul-23 11:31N 31°56' E 033°38'1313.5
2014-Jul-23 10:32N 31°55' E 033°53'1613.4
2014-Jul-23 09:19N 31°54' E 034°13'25 1.2
2014-Jul-22 11:31N 32°12' E 034°34'1414.8
2014-Jul-22 10:33N 32°26' E 034°39'1514.6
2014-Jul-22 09:33N 32°40' E 034°44'17 1.4
2014-Jul-21 21:23N 32°55' E 034°35'5710.8
2014-Jul-21 16:07N 33°31' E 033°43'1012.4
2014-Jul-21 15:21N 33°40' E 033°38'3512.3
2014-Jul-21 12:31N 34°11' E 033°20'1212.2
2014-Jul-21 11:33N 34°22' E 033°13'1212.1
2014-Jul-21 10:33N 34°33' E 033°07'8 7.7
2014-Jul-21 09:31N 34°39' E 033°01'0 0.0
2014-Jul-21 08:28N 34°39' E 033°01'0 0.0
2014-Jul-21 07:31N 34°39' E 033°01'0 0.0
2014-Jul-21 06:33N 34°39' E 033°01'0 0.0
2014-Jul-21 05:33N 34°39' E 033°01'  

Dump ship's entire track history